sensor_id;sensor_type;location;lat;lon;timestamp;P1;durP1;ratioP1;P2;durP2;ratioP2
1000;SDS011;489;47.806;12.858;2024-01-07T00:01:48;6.23;;;5.47;;
1000;SDS011;489;47.806;12.858;2024-01-07T00:03:51;8.37;;;6.17;;
1000;SDS011;489;47.806;12.858;2024-01-07T00:05:52;7.47;;;5.87;;
1000;SDS011;489;47.806;12.858;2024-01-07T00:07:54;8.07;;;6.43;;
1000;SDS011;489;47.806;12.858;2024-01-07T00:09:56;7.60;;;5.90;;
1000;SDS011;489;47.806;12.858;2024-01-07T00:11:59;7.27;;;6.57;;
1000;SDS011;489;47.806;12.858;2024-01-07T00:14:02;7.67;;;6.40;;
1000;SDS011;489;47.806;12.858;2024-01-07T00:16:04;9.70;;;6.77;;
1000;SDS011;489;47.806;12.858;2024-01-07T00:18:06;8.27;;;6.60;;
1000;SDS011;489;47.806;12.858;2024-01-07T00:20:09;6.73;;;5.70;;
1000;SDS011;489;47.806;12.858;2024-01-07T00:22:11;9.03;;;6.90;;
1000;SDS011;489;47.806;12.858;2024-01-07T00:24:13;8.60;;;6.30;;
1000;SDS011;489;47.806;12.858;2024-01-07T00:26:15;7.40;;;5.80;;
1000;SDS011;489;47.806;12.858;2024-01-07T00:28:19;6.83;;;5.67;;
1000;SDS011;489;47.806;12.858;2024-01-07T00:30:21;6.47;;;5.27;;
1000;SDS011;489;47.806;12.858;2024-01-07T00:32:23;8.67;;;6.23;;
1000;SDS011;489;47.806;12.858;2024-01-07T00:34:26;6.27;;;5.00;;
1000;SDS011;489;47.806;12.858;2024-01-07T00:36:28;8.93;;;7.00;;
1000;SDS011;489;47.806;12.858;2024-01-07T00:38:31;8.07;;;5.67;;
1000;SDS011;489;47.806;12.858;2024-01-07T00:40:32;7.80;;;5.63;;
1000;SDS011;489;47.806;12.858;2024-01-07T00:42:35;6.53;;;5.30;;
1000;SDS011;489;47.806;12.858;2024-01-07T00:44:38;9.13;;;6.17;;
1000;SDS011;489;47.806;12.858;2024-01-07T00:46:40;7.47;;;5.30;;
1000;SDS011;489;47.806;12.858;2024-01-07T00:48:42;7.63;;;4.73;;
1000;SDS011;489;47.806;12.858;2024-01-07T00:50:44;8.03;;;6.50;;
1000;SDS011;489;47.806;12.858;2024-01-07T00:52:46;10.93;;;7.40;;
1000;SDS011;489;47.806;12.858;2024-01-07T00:54:48;9.17;;;7.30;;
1000;SDS011;489;47.806;12.858;2024-01-07T00:56:50;10.40;;;8.43;;
1000;SDS011;489;47.806;12.858;2024-01-07T00:58:51;8.80;;;7.60;;
1000;SDS011;489;47.806;12.858;2024-01-07T01:00:55;6.53;;;5.87;;
1000;SDS011;489;47.806;12.858;2024-01-07T01:02:57;8.87;;;6.37;;
1000;SDS011;489;47.806;12.858;2024-01-07T01:04:59;8.80;;;7.07;;
1000;SDS011;489;47.806;12.858;2024-01-07T01:07:01;8.80;;;6.97;;
1000;SDS011;489;47.806;12.858;2024-01-07T01:09:03;8.30;;;6.13;;
1000;SDS011;489;47.806;12.858;2024-01-07T01:11:08;8.50;;;6.10;;
1000;SDS011;489;47.806;12.858;2024-01-07T01:13:10;7.73;;;5.43;;
1000;SDS011;489;47.806;12.858;2024-01-07T01:15:12;6.83;;;5.20;;
1000;SDS011;489;47.806;12.858;2024-01-07T01:17:18;7.00;;;5.77;;
1000;SDS011;489;47.806;12.858;2024-01-07T01:19:19;6.77;;;5.10;;
1000;SDS011;489;47.806;12.858;2024-01-07T01:21:21;6.67;;;5.30;;
1000;SDS011;489;47.806;12.858;2024-01-07T01:23:23;7.20;;;5.37;;
1000;SDS011;489;47.806;12.858;2024-01-07T01:25:26;8.63;;;6.07;;
1000;SDS011;489;47.806;12.858;2024-01-07T01:27:29;7.27;;;5.50;;
1000;SDS011;489;47.806;12.858;2024-01-07T01:29:30;7.07;;;4.80;;
1000;SDS011;489;47.806;12.858;2024-01-07T01:31:33;10.00;;;5.70;;
1000;SDS011;489;47.806;12.858;2024-01-07T01:33:36;7.50;;;5.23;;
1000;SDS011;489;47.806;12.858;2024-01-07T01:35:38;6.50;;;4.90;;
1000;SDS011;489;47.806;12.858;2024-01-07T01:37:40;7.23;;;5.17;;
1000;SDS011;489;47.806;12.858;2024-01-07T01:39:42;6.93;;;4.97;;
1000;SDS011;489;47.806;12.858;2024-01-07T01:41:44;7.63;;;5.30;;
1000;SDS011;489;47.806;12.858;2024-01-07T01:43:46;7.23;;;4.87;;
1000;SDS011;489;47.806;12.858;2024-01-07T01:45:48;6.43;;;4.77;;
1000;SDS011;489;47.806;12.858;2024-01-07T01:47:50;7.00;;;4.67;;
1000;SDS011;489;47.806;12.858;2024-01-07T01:49:53;5.70;;;4.77;;
1000;SDS011;489;47.806;12.858;2024-01-07T01:51:58;6.70;;;4.93;;
1000;SDS011;489;47.806;12.858;2024-01-07T01:54:00;6.77;;;5.20;;
1000;SDS011;489;47.806;12.858;2024-01-07T01:56:04;7.17;;;4.80;;
1000;SDS011;489;47.806;12.858;2024-01-07T01:58:07;7.80;;;6.13;;
1000;SDS011;489;47.806;12.858;2024-01-07T02:00:11;7.00;;;5.60;;
1000;SDS011;489;47.806;12.858;2024-01-07T02:02:16;6.30;;;4.50;;
1000;SDS011;489;47.806;12.858;2024-01-07T02:04:18;7.80;;;5.13;;
1000;SDS011;489;47.806;12.858;2024-01-07T02:06:22;9.53;;;5.70;;
1000;SDS011;489;47.806;12.858;2024-01-07T02:08:24;7.00;;;5.70;;
1000;SDS011;489;47.806;12.858;2024-01-07T02:10:26;7.27;;;5.00;;
1000;SDS011;489;47.806;12.858;2024-01-07T02:12:35;7.23;;;4.93;;
1000;SDS011;489;47.806;12.858;2024-01-07T02:14:37;6.00;;;4.93;;
1000;SDS011;489;47.806;12.858;2024-01-07T02:16:39;6.23;;;5.10;;
1000;SDS011;489;47.806;12.858;2024-01-07T02:18:41;7.70;;;5.50;;
1000;SDS011;489;47.806;12.858;2024-01-07T02:20:43;8.50;;;5.93;;
1000;SDS011;489;47.806;12.858;2024-01-07T02:22:46;7.87;;;5.77;;
1000;SDS011;489;47.806;12.858;2024-01-07T02:24:49;7.47;;;5.40;;
1000;SDS011;489;47.806;12.858;2024-01-07T02:26:51;7.77;;;5.07;;
1000;SDS011;489;47.806;12.858;2024-01-07T02:28:52;6.57;;;4.60;;
1000;SDS011;489;47.806;12.858;2024-01-07T02:30:54;6.83;;;4.80;;
1000;SDS011;489;47.806;12.858;2024-01-07T02:32:55;7.83;;;5.33;;
1000;SDS011;489;47.806;12.858;2024-01-07T02:34:57;5.80;;;4.63;;
1000;SDS011;489;47.806;12.858;2024-01-07T02:36:59;7.57;;;5.47;;
1000;SDS011;489;47.806;12.858;2024-01-07T02:39:00;8.67;;;5.50;;
1000;SDS011;489;47.806;12.858;2024-01-07T02:41:04;8.33;;;5.63;;
1000;SDS011;489;47.806;12.858;2024-01-07T02:43:06;7.80;;;5.13;;
1000;SDS011;489;47.806;12.858;2024-01-07T02:45:09;7.53;;;5.40;;
1000;SDS011;489;47.806;12.858;2024-01-07T02:47:11;8.50;;;5.87;;
1000;SDS011;489;47.806;12.858;2024-01-07T02:49:12;8.00;;;5.60;;
1000;SDS011;489;47.806;12.858;2024-01-07T02:51:14;7.10;;;5.23;;
1000;SDS011;489;47.806;12.858;2024-01-07T02:53:16;7.03;;;5.90;;
1000;SDS011;489;47.806;12.858;2024-01-07T02:55:18;7.80;;;5.33;;
1000;SDS011;489;47.806;12.858;2024-01-07T02:57:22;8.30;;;5.80;;
1000;SDS011;489;47.806;12.858;2024-01-07T02:59:24;7.67;;;5.77;;
1000;SDS011;489;47.806;12.858;2024-01-07T03:01:44;7.60;;;5.33;;
1000;SDS011;489;47.806;12.858;2024-01-07T03:03:46;9.07;;;5.70;;
1000;SDS011;489;47.806;12.858;2024-01-07T03:05:48;7.80;;;5.40;;
1000;SDS011;489;47.806;12.858;2024-01-07T03:07:50;7.50;;;5.37;;
1000;SDS011;489;47.806;12.858;2024-01-07T03:09:52;7.87;;;5.97;;
1000;SDS011;489;47.806;12.858;2024-01-07T03:11:53;7.00;;;5.23;;
1000;SDS011;489;47.806;12.858;2024-01-07T03:13:57;7.77;;;5.00;;
1000;SDS011;489;47.806;12.858;2024-01-07T03:15:59;5.93;;;4.77;;
1000;SDS011;489;47.806;12.858;2024-01-07T03:18:01;6.03;;;4.30;;
1000;SDS011;489;47.806;12.858;2024-01-07T03:20:03;7.23;;;5.50;;
1000;SDS011;489;47.806;12.858;2024-01-07T03:22:06;7.97;;;5.30;;
1000;SDS011;489;47.806;12.858;2024-01-07T03:24:08;6.30;;;4.97;;
1000;SDS011;489;47.806;12.858;2024-01-07T03:26:10;8.47;;;5.77;;
1000;SDS011;489;47.806;12.858;2024-01-07T03:28:11;8.20;;;5.70;;
1000;SDS011;489;47.806;12.858;2024-01-07T03:30:15;9.30;;;6.17;;
1000;SDS011;489;47.806;12.858;2024-01-07T03:32:16;8.00;;;5.40;;
1000;SDS011;489;47.806;12.858;2024-01-07T03:34:18;9.40;;;6.27;;
1000;SDS011;489;47.806;12.858;2024-01-07T03:36:20;7.93;;;6.10;;
1000;SDS011;489;47.806;12.858;2024-01-07T03:38:22;9.50;;;5.93;;
1000;SDS011;489;47.806;12.858;2024-01-07T03:40:24;10.40;;;7.10;;
1000;SDS011;489;47.806;12.858;2024-01-07T03:42:26;9.73;;;6.30;;
1000;SDS011;489;47.806;12.858;2024-01-07T03:44:28;7.90;;;5.90;;
1000;SDS011;489;47.806;12.858;2024-01-07T03:46:31;9.00;;;6.27;;
1000;SDS011;489;47.806;12.858;2024-01-07T03:48:33;8.67;;;5.90;;
1000;SDS011;489;47.806;12.858;2024-01-07T03:50:35;10.40;;;6.73;;
1000;SDS011;489;47.806;12.858;2024-01-07T03:52:37;7.50;;;5.60;;
1000;SDS011;489;47.806;12.858;2024-01-07T03:54:39;8.17;;;6.40;;
1000;SDS011;489;47.806;12.858;2024-01-07T03:56:41;8.00;;;6.03;;
1000;SDS011;489;47.806;12.858;2024-01-07T03:58:43;8.90;;;5.63;;
1000;SDS011;489;47.806;12.858;2024-01-07T04:00:45;7.63;;;5.10;;
1000;SDS011;489;47.806;12.858;2024-01-07T04:02:49;8.60;;;6.67;;
1000;SDS011;489;47.806;12.858;2024-01-07T04:04:51;7.70;;;5.17;;
1000;SDS011;489;47.806;12.858;2024-01-07T04:06:53;14.07;;;9.17;;
1000;SDS011;489;47.806;12.858;2024-01-07T04:08:55;15.17;;;11.17;;
1000;SDS011;489;47.806;12.858;2024-01-07T04:10:57;13.63;;;9.67;;
1000;SDS011;489;47.806;12.858;2024-01-07T04:12:59;9.10;;;7.77;;
1000;SDS011;489;47.806;12.858;2024-01-07T04:15:01;9.40;;;7.47;;
1000;SDS011;489;47.806;12.858;2024-01-07T04:17:03;9.17;;;7.20;;
1000;SDS011;489;47.806;12.858;2024-01-07T04:19:06;8.23;;;6.33;;
1000;SDS011;489;47.806;12.858;2024-01-07T04:21:08;9.70;;;6.47;;
1000;SDS011;489;47.806;12.858;2024-01-07T04:23:11;8.00;;;6.00;;
1000;SDS011;489;47.806;12.858;2024-01-07T04:25:13;7.60;;;5.50;;
1000;SDS011;489;47.806;12.858;2024-01-07T04:27:15;8.03;;;6.50;;
1000;SDS011;489;47.806;12.858;2024-01-07T04:29:17;6.70;;;5.23;;
1000;SDS011;489;47.806;12.858;2024-01-07T04:31:18;7.70;;;5.57;;
1000;SDS011;489;47.806;12.858;2024-01-07T04:33:20;7.20;;;5.37;;
1000;SDS011;489;47.806;12.858;2024-01-07T04:35:23;7.87;;;5.50;;
1000;SDS011;489;47.806;12.858;2024-01-07T04:37:26;7.53;;;5.80;;
1000;SDS011;489;47.806;12.858;2024-01-07T04:39:29;9.57;;;6.27;;
1000;SDS011;489;47.806;12.858;2024-01-07T04:41:31;6.90;;;5.53;;
1000;SDS011;489;47.806;12.858;2024-01-07T04:43:33;6.07;;;5.30;;
1000;SDS011;489;47.806;12.858;2024-01-07T04:45:35;9.30;;;6.90;;
1000;SDS011;489;47.806;12.858;2024-01-07T04:47:38;9.20;;;6.60;;
1000;SDS011;489;47.806;12.858;2024-01-07T04:49:39;9.73;;;6.40;;
1000;SDS011;489;47.806;12.858;2024-01-07T04:51:43;9.07;;;6.53;;
1000;SDS011;489;47.806;12.858;2024-01-07T04:53:45;8.20;;;6.43;;
1000;SDS011;489;47.806;12.858;2024-01-07T04:55:48;7.27;;;6.33;;
1000;SDS011;489;47.806;12.858;2024-01-07T04:57:49;9.80;;;8.00;;
1000;SDS011;489;47.806;12.858;2024-01-07T04:59:51;9.80;;;7.63;;
1000;SDS011;489;47.806;12.858;2024-01-07T05:01:54;8.63;;;6.53;;
1000;SDS011;489;47.806;12.858;2024-01-07T05:03:55;7.30;;;5.80;;
1000;SDS011;489;47.806;12.858;2024-01-07T05:05:57;8.77;;;6.03;;
1000;SDS011;489;47.806;12.858;2024-01-07T05:08:01;9.97;;;6.70;;
1000;SDS011;489;47.806;12.858;2024-01-07T05:10:03;8.13;;;7.00;;
1000;SDS011;489;47.806;12.858;2024-01-07T05:12:06;9.67;;;6.90;;
1000;SDS011;489;47.806;12.858;2024-01-07T05:14:08;7.70;;;5.77;;
1000;SDS011;489;47.806;12.858;2024-01-07T05:16:17;7.77;;;6.30;;
1000;SDS011;489;47.806;12.858;2024-01-07T05:18:20;7.30;;;5.70;;
1000;SDS011;489;47.806;12.858;2024-01-07T05:20:22;8.80;;;6.73;;
1000;SDS011;489;47.806;12.858;2024-01-07T05:22:24;8.80;;;6.70;;
1000;SDS011;489;47.806;12.858;2024-01-07T05:24:27;9.37;;;6.47;;
1000;SDS011;489;47.806;12.858;2024-01-07T05:26:29;8.80;;;6.10;;
1000;SDS011;489;47.806;12.858;2024-01-07T05:28:31;10.60;;;6.60;;
1000;SDS011;489;47.806;12.858;2024-01-07T05:30:32;8.73;;;6.80;;
1000;SDS011;489;47.806;12.858;2024-01-07T05:32:34;8.40;;;5.93;;
1000;SDS011;489;47.806;12.858;2024-01-07T05:34:36;8.80;;;6.30;;
1000;SDS011;489;47.806;12.858;2024-01-07T05:36:37;8.70;;;6.70;;
1000;SDS011;489;47.806;12.858;2024-01-07T05:38:39;8.40;;;6.30;;
1000;SDS011;489;47.806;12.858;2024-01-07T05:40:44;9.70;;;6.10;;
1000;SDS011;489;47.806;12.858;2024-01-07T05:42:46;9.53;;;6.20;;
1000;SDS011;489;47.806;12.858;2024-01-07T05:44:48;8.90;;;6.67;;
1000;SDS011;489;47.806;12.858;2024-01-07T05:46:50;8.43;;;6.00;;
1000;SDS011;489;47.806;12.858;2024-01-07T05:48:51;8.10;;;5.73;;
1000;SDS011;489;47.806;12.858;2024-01-07T05:50:54;7.70;;;5.90;;
1000;SDS011;489;47.806;12.858;2024-01-07T05:52:58;9.10;;;6.33;;
1000;SDS011;489;47.806;12.858;2024-01-07T05:55:01;10.80;;;6.67;;
1000;SDS011;489;47.806;12.858;2024-01-07T05:57:04;14.33;;;9.70;;
1000;SDS011;489;47.806;12.858;2024-01-07T05:59:06;15.73;;;10.73;;
1000;SDS011;489;47.806;12.858;2024-01-07T06:01:09;17.17;;;12.03;;
1000;SDS011;489;47.806;12.858;2024-01-07T06:03:10;10.40;;;7.63;;
1000;SDS011;489;47.806;12.858;2024-01-07T06:05:13;10.70;;;6.40;;
1000;SDS011;489;47.806;12.858;2024-01-07T06:07:15;8.37;;;6.23;;
1000;SDS011;489;47.806;12.858;2024-01-07T06:09:17;9.60;;;6.37;;
1000;SDS011;489;47.806;12.858;2024-01-07T06:11:19;8.30;;;6.20;;
1000;SDS011;489;47.806;12.858;2024-01-07T06:13:25;8.50;;;6.10;;
1000;SDS011;489;47.806;12.858;2024-01-07T06:15:26;8.10;;;6.20;;
1000;SDS011;489;47.806;12.858;2024-01-07T06:17:28;7.33;;;5.80;;
1000;SDS011;489;47.806;12.858;2024-01-07T06:19:30;8.87;;;7.13;;
1000;SDS011;489;47.806;12.858;2024-01-07T06:21:32;8.20;;;6.30;;
1000;SDS011;489;47.806;12.858;2024-01-07T06:23:34;10.10;;;6.90;;
1000;SDS011;489;47.806;12.858;2024-01-07T06:25:36;11.70;;;8.07;;
1000;SDS011;489;47.806;12.858;2024-01-07T06:27:39;9.53;;;7.00;;
1000;SDS011;489;47.806;12.858;2024-01-07T06:29:43;9.67;;;7.47;;
1000;SDS011;489;47.806;12.858;2024-01-07T06:31:45;12.33;;;8.00;;
1000;SDS011;489;47.806;12.858;2024-01-07T06:33:47;11.00;;;8.03;;
1000;SDS011;489;47.806;12.858;2024-01-07T06:35:49;11.10;;;8.10;;
1000;SDS011;489;47.806;12.858;2024-01-07T06:37:51;10.03;;;8.00;;
1000;SDS011;489;47.806;12.858;2024-01-07T06:39:52;10.50;;;8.00;;
1000;SDS011;489;47.806;12.858;2024-01-07T06:41:54;11.13;;;8.13;;
1000;SDS011;489;47.806;12.858;2024-01-07T06:43:56;11.43;;;8.20;;
1000;SDS011;489;47.806;12.858;2024-01-07T06:45:58;10.53;;;7.83;;
1000;SDS011;489;47.806;12.858;2024-01-07T06:48:01;12.87;;;8.53;;
1000;SDS011;489;47.806;12.858;2024-01-07T06:50:03;13.57;;;8.20;;
1000;SDS011;489;47.806;12.858;2024-01-07T06:52:06;10.07;;;7.30;;
1000;SDS011;489;47.806;12.858;2024-01-07T06:54:08;9.20;;;6.47;;
1000;SDS011;489;47.806;12.858;2024-01-07T06:56:08;12.60;;;8.00;;
1000;SDS011;489;47.806;12.858;2024-01-07T06:58:11;9.70;;;6.30;;
1000;SDS011;489;47.806;12.858;2024-01-07T07:00:12;10.13;;;6.63;;
1000;SDS011;489;47.806;12.858;2024-01-07T07:02:17;8.97;;;6.30;;
1000;SDS011;489;47.806;12.858;2024-01-07T07:04:19;13.13;;;8.30;;
1000;SDS011;489;47.806;12.858;2024-01-07T07:06:21;10.43;;;7.17;;
1000;SDS011;489;47.806;12.858;2024-01-07T07:08:24;11.17;;;7.23;;
1000;SDS011;489;47.806;12.858;2024-01-07T07:10:27;6.90;;;6.07;;
1000;SDS011;489;47.806;12.858;2024-01-07T07:12:29;8.43;;;6.30;;
1000;SDS011;489;47.806;12.858;2024-01-07T07:14:31;9.53;;;6.87;;
1000;SDS011;489;47.806;12.858;2024-01-07T07:16:33;9.13;;;7.07;;
1000;SDS011;489;47.806;12.858;2024-01-07T07:18:36;9.40;;;6.57;;
1000;SDS011;489;47.806;12.858;2024-01-07T07:20:38;7.87;;;6.50;;
1000;SDS011;489;47.806;12.858;2024-01-07T07:22:40;8.40;;;6.50;;
1000;SDS011;489;47.806;12.858;2024-01-07T07:24:42;8.10;;;6.17;;
1000;SDS011;489;47.806;12.858;2024-01-07T07:26:44;9.30;;;6.37;;
1000;SDS011;489;47.806;12.858;2024-01-07T07:28:45;7.60;;;5.90;;
1000;SDS011;489;47.806;12.858;2024-01-07T07:30:48;7.17;;;5.63;;
1000;SDS011;489;47.806;12.858;2024-01-07T07:32:49;5.43;;;4.87;;
1000;SDS011;489;47.806;12.858;2024-01-07T07:34:53;8.93;;;6.13;;
1000;SDS011;489;47.806;12.858;2024-01-07T07:36:56;8.43;;;6.00;;
1000;SDS011;489;47.806;12.858;2024-01-07T07:38:58;8.17;;;5.93;;
1000;SDS011;489;47.806;12.858;2024-01-07T07:41:00;8.87;;;5.87;;
1000;SDS011;489;47.806;12.858;2024-01-07T07:43:02;7.13;;;5.60;;
1000;SDS011;489;47.806;12.858;2024-01-07T07:45:04;8.23;;;6.30;;
1000;SDS011;489;47.806;12.858;2024-01-07T07:47:08;6.30;;;5.43;;
1000;SDS011;489;47.806;12.858;2024-01-07T07:49:11;10.37;;;6.87;;
1000;SDS011;489;47.806;12.858;2024-01-07T07:51:15;13.17;;;7.90;;
1000;SDS011;489;47.806;12.858;2024-01-07T07:53:16;9.50;;;6.80;;
1000;SDS011;489;47.806;12.858;2024-01-07T07:55:18;9.57;;;6.47;;
1000;SDS011;489;47.806;12.858;2024-01-07T07:57:21;9.80;;;6.90;;
1000;SDS011;489;47.806;12.858;2024-01-07T07:59:25;12.80;;;7.93;;
1000;SDS011;489;47.806;12.858;2024-01-07T08:01:27;12.37;;;7.73;;
1000;SDS011;489;47.806;12.858;2024-01-07T08:03:29;10.37;;;7.70;;
1000;SDS011;489;47.806;12.858;2024-01-07T08:05:31;8.60;;;6.17;;
1000;SDS011;489;47.806;12.858;2024-01-07T08:07:34;7.47;;;5.60;;
1000;SDS011;489;47.806;12.858;2024-01-07T08:09:36;7.83;;;5.90;;
1000;SDS011;489;47.806;12.858;2024-01-07T08:11:37;6.50;;;5.20;;
1000;SDS011;489;47.806;12.858;2024-01-07T08:13:40;8.93;;;6.70;;
1000;SDS011;489;47.806;12.858;2024-01-07T08:15:43;7.30;;;5.60;;
1000;SDS011;489;47.806;12.858;2024-01-07T08:17:45;7.40;;;6.03;;
1000;SDS011;489;47.806;12.858;2024-01-07T08:19:47;7.37;;;5.90;;
1000;SDS011;489;47.806;12.858;2024-01-07T08:21:49;7.53;;;5.17;;
1000;SDS011;489;47.806;12.858;2024-01-07T08:23:52;6.17;;;4.73;;
1000;SDS011;489;47.806;12.858;2024-01-07T08:25:54;3.90;;;3.23;;
1000;SDS011;489;47.806;12.858;2024-01-07T08:27:55;4.90;;;3.50;;
1000;SDS011;489;47.806;12.858;2024-01-07T08:30:20;2.90;;;2.57;;
1000;SDS011;489;47.806;12.858;2024-01-07T08:32:22;4.33;;;2.60;;
1000;SDS011;489;47.806;12.858;2024-01-07T08:34:24;4.80;;;3.70;;
1000;SDS011;489;47.806;12.858;2024-01-07T08:36:27;3.87;;;3.47;;
1000;SDS011;489;47.806;12.858;2024-01-07T08:38:29;5.53;;;3.83;;
1000;SDS011;489;47.806;12.858;2024-01-07T08:40:33;5.40;;;3.80;;
1000;SDS011;489;47.806;12.858;2024-01-07T08:42:35;3.90;;;3.17;;
1000;SDS011;489;47.806;12.858;2024-01-07T08:44:37;7.30;;;5.50;;
1000;SDS011;489;47.806;12.858;2024-01-07T08:46:39;4.83;;;3.60;;
1000;SDS011;489;47.806;12.858;2024-01-07T08:48:41;5.27;;;3.37;;
1000;SDS011;489;47.806;12.858;2024-01-07T08:50:43;5.53;;;4.63;;
1000;SDS011;489;47.806;12.858;2024-01-07T08:52:47;7.37;;;5.13;;
1000;SDS011;489;47.806;12.858;2024-01-07T08:54:48;3.97;;;2.23;;
1000;SDS011;489;47.806;12.858;2024-01-07T08:56:51;2.73;;;2.50;;
1000;SDS011;489;47.806;12.858;2024-01-07T08:58:53;3.13;;;2.70;;
1000;SDS011;489;47.806;12.858;2024-01-07T09:00:56;2.40;;;2.00;;
1000;SDS011;489;47.806;12.858;2024-01-07T09:02:58;2.20;;;2.00;;
1000;SDS011;489;47.806;12.858;2024-01-07T09:05:01;3.03;;;2.47;;
1000;SDS011;489;47.806;12.858;2024-01-07T09:07:03;2.90;;;2.47;;
1000;SDS011;489;47.806;12.858;2024-01-07T09:09:04;5.50;;;4.50;;
1000;SDS011;489;47.806;12.858;2024-01-07T09:11:06;5.13;;;4.43;;
1000;SDS011;489;47.806;12.858;2024-01-07T09:13:12;4.17;;;3.40;;
1000;SDS011;489;47.806;12.858;2024-01-07T09:15:14;2.83;;;2.50;;
1000;SDS011;489;47.806;12.858;2024-01-07T09:17:21;2.20;;;2.00;;
1000;SDS011;489;47.806;12.858;2024-01-07T09:19:23;2.20;;;2.00;;
1000;SDS011;489;47.806;12.858;2024-01-07T09:21:25;3.23;;;2.70;;
1000;SDS011;489;47.806;12.858;2024-01-07T09:23:27;3.10;;;2.80;;
1000;SDS011;489;47.806;12.858;2024-01-07T09:25:29;5.00;;;3.80;;
1000;SDS011;489;47.806;12.858;2024-01-07T09:27:31;3.80;;;3.33;;
1000;SDS011;489;47.806;12.858;2024-01-07T09:29:33;3.90;;;3.23;;
1000;SDS011;489;47.806;12.858;2024-01-07T09:31:35;4.13;;;3.70;;
1000;SDS011;489;47.806;12.858;2024-01-07T09:33:38;4.10;;;3.43;;
1000;SDS011;489;47.806;12.858;2024-01-07T09:35:39;3.70;;;3.17;;
1000;SDS011;489;47.806;12.858;2024-01-07T09:38:00;3.90;;;3.10;;
1000;SDS011;489;47.806;12.858;2024-01-07T09:40:04;4.07;;;3.20;;
1000;SDS011;489;47.806;12.858;2024-01-07T09:42:07;3.00;;;2.53;;
1000;SDS011;489;47.806;12.858;2024-01-07T09:44:10;2.93;;;2.63;;
1000;SDS011;489;47.806;12.858;2024-01-07T09:46:14;3.70;;;3.17;;
1000;SDS011;489;47.806;12.858;2024-01-07T09:48:17;4.90;;;3.20;;
1000;SDS011;489;47.806;12.858;2024-01-07T09:50:19;3.37;;;2.70;;
1000;SDS011;489;47.806;12.858;2024-01-07T09:52:21;2.90;;;2.60;;
1000;SDS011;489;47.806;12.858;2024-01-07T09:54:24;3.33;;;2.60;;
1000;SDS011;489;47.806;12.858;2024-01-07T09:56:26;3.60;;;2.70;;
1000;SDS011;489;47.806;12.858;2024-01-07T09:58:33;3.13;;;2.50;;
1000;SDS011;489;47.806;12.858;2024-01-07T10:00:35;2.83;;;2.43;;
1000;SDS011;489;47.806;12.858;2024-01-07T10:02:39;2.40;;;2.20;;
1000;SDS011;489;47.806;12.858;2024-01-07T10:04:42;2.73;;;2.53;;
1000;SDS011;489;47.806;12.858;2024-01-07T10:06:45;3.73;;;2.87;;
1000;SDS011;489;47.806;12.858;2024-01-07T10:08:46;3.27;;;2.70;;
1000;SDS011;489;47.806;12.858;2024-01-07T10:10:48;3.13;;;2.70;;
1000;SDS011;489;47.806;12.858;2024-01-07T10:12:50;3.10;;;2.20;;
1000;SDS011;489;47.806;12.858;2024-01-07T10:14:53;2.90;;;2.60;;
1000;SDS011;489;47.806;12.858;2024-01-07T10:16:55;3.53;;;3.23;;
1000;SDS011;489;47.806;12.858;2024-01-07T10:19:00;5.30;;;4.10;;
1000;SDS011;489;47.806;12.858;2024-01-07T10:21:02;5.37;;;4.87;;
1000;SDS011;489;47.806;12.858;2024-01-07T10:23:05;4.90;;;4.17;;
1000;SDS011;489;47.806;12.858;2024-01-07T10:25:08;4.63;;;3.27;;
1000;SDS011;489;47.806;12.858;2024-01-07T10:27:10;4.57;;;3.20;;
1000;SDS011;489;47.806;12.858;2024-01-07T10:29:11;4.23;;;3.80;;
1000;SDS011;489;47.806;12.858;2024-01-07T10:31:13;4.17;;;3.50;;
1000;SDS011;489;47.806;12.858;2024-01-07T10:33:16;3.80;;;3.07;;
1000;SDS011;489;47.806;12.858;2024-01-07T10:35:20;4.47;;;3.80;;
1000;SDS011;489;47.806;12.858;2024-01-07T10:37:22;4.10;;;3.70;;
1000;SDS011;489;47.806;12.858;2024-01-07T10:39:24;4.40;;;4.00;;
1000;SDS011;489;47.806;12.858;2024-01-07T10:41:27;4.53;;;4.10;;
1000;SDS011;489;47.806;12.858;2024-01-07T10:43:30;3.70;;;3.40;;
1000;SDS011;489;47.806;12.858;2024-01-07T10:45:31;7.60;;;5.90;;
1000;SDS011;489;47.806;12.858;2024-01-07T10:47:33;6.50;;;5.03;;
1000;SDS011;489;47.806;12.858;2024-01-07T10:49:36;6.53;;;5.83;;
1000;SDS011;489;47.806;12.858;2024-01-07T10:51:42;6.00;;;5.40;;
1000;SDS011;489;47.806;12.858;2024-01-07T10:53:46;9.73;;;8.67;;
1000;SDS011;489;47.806;12.858;2024-01-07T10:55:48;10.63;;;8.90;;
1000;SDS011;489;47.806;12.858;2024-01-07T10:57:54;10.67;;;8.83;;
1000;SDS011;489;47.806;12.858;2024-01-07T10:59:57;9.77;;;8.60;;
1000;SDS011;489;47.806;12.858;2024-01-07T11:02:01;12.63;;;10.90;;
1000;SDS011;489;47.806;12.858;2024-01-07T11:04:06;9.20;;;7.63;;
1000;SDS011;489;47.806;12.858;2024-01-07T11:06:15;6.90;;;6.20;;
1000;SDS011;489;47.806;12.858;2024-01-07T11:08:24;5.97;;;5.10;;
1000;SDS011;489;47.806;12.858;2024-01-07T11:10:29;7.20;;;5.87;;
1000;SDS011;489;47.806;12.858;2024-01-07T11:12:36;8.07;;;7.27;;
1000;SDS011;489;47.806;12.858;2024-01-07T11:14:39;8.27;;;6.83;;
1000;SDS011;489;47.806;12.858;2024-01-07T11:16:45;9.23;;;6.90;;
1000;SDS011;489;47.806;12.858;2024-01-07T11:18:49;8.40;;;6.50;;
1000;SDS011;489;47.806;12.858;2024-01-07T11:20:53;6.37;;;5.10;;
1000;SDS011;489;47.806;12.858;2024-01-07T11:23:03;6.23;;;4.80;;
1000;SDS011;489;47.806;12.858;2024-01-07T11:25:31;5.10;;;3.80;;
1000;SDS011;489;47.806;12.858;2024-01-07T11:27:34;8.23;;;7.20;;
1000;SDS011;489;47.806;12.858;2024-01-07T11:29:36;16.37;;;14.67;;
1000;SDS011;489;47.806;12.858;2024-01-07T11:31:44;24.87;;;22.70;;
1000;SDS011;489;47.806;12.858;2024-01-07T11:33:49;15.60;;;14.20;;
1000;SDS011;489;47.806;12.858;2024-01-07T11:35:54;11.53;;;10.47;;
1000;SDS011;489;47.806;12.858;2024-01-07T11:37:57;11.30;;;10.30;;
1000;SDS011;489;47.806;12.858;2024-01-07T11:40:02;10.97;;;9.60;;
1000;SDS011;489;47.806;12.858;2024-01-07T11:42:05;6.70;;;6.00;;
1000;SDS011;489;47.806;12.858;2024-01-07T11:44:07;5.73;;;5.20;;
1000;SDS011;489;47.806;12.858;2024-01-07T11:46:11;4.77;;;4.27;;
1000;SDS011;489;47.806;12.858;2024-01-07T11:48:13;29.23;;;22.67;;
1000;SDS011;489;47.806;12.858;2024-01-07T11:50:16;14.63;;;12.20;;
1000;SDS011;489;47.806;12.858;2024-01-07T11:52:18;6.47;;;5.63;;
1000;SDS011;489;47.806;12.858;2024-01-07T11:54:20;5.27;;;4.77;;
1000;SDS011;489;47.806;12.858;2024-01-07T11:56:25;7.40;;;4.90;;
1000;SDS011;489;47.806;12.858;2024-01-07T11:58:27;6.57;;;5.20;;
1000;SDS011;489;47.806;12.858;2024-01-07T12:00:30;6.40;;;5.07;;
1000;SDS011;489;47.806;12.858;2024-01-07T12:02:32;7.30;;;6.20;;
1000;SDS011;489;47.806;12.858;2024-01-07T12:04:34;5.70;;;4.53;;
1000;SDS011;489;47.806;12.858;2024-01-07T12:06:37;5.40;;;4.67;;
1000;SDS011;489;47.806;12.858;2024-01-07T12:08:38;5.30;;;4.40;;
1000;SDS011;489;47.806;12.858;2024-01-07T12:10:40;5.97;;;4.63;;
1000;SDS011;489;47.806;12.858;2024-01-07T12:12:44;5.17;;;4.30;;
1000;SDS011;489;47.806;12.858;2024-01-07T12:14:46;5.03;;;4.53;;
1000;SDS011;489;47.806;12.858;2024-01-07T12:16:48;6.83;;;5.10;;
1000;SDS011;489;47.806;12.858;2024-01-07T12:18:50;6.10;;;5.10;;
1000;SDS011;489;47.806;12.858;2024-01-07T12:20:55;5.97;;;5.33;;
1000;SDS011;489;47.806;12.858;2024-01-07T12:23:05;6.07;;;4.77;;
1000;SDS011;489;47.806;12.858;2024-01-07T12:25:07;6.27;;;4.97;;
1000;SDS011;489;47.806;12.858;2024-01-07T12:27:10;5.70;;;4.43;;
1000;SDS011;489;47.806;12.858;2024-01-07T12:29:15;5.30;;;4.50;;
1000;SDS011;489;47.806;12.858;2024-01-07T12:31:18;5.57;;;5.00;;
1000;SDS011;489;47.806;12.858;2024-01-07T12:33:20;5.63;;;4.70;;
1000;SDS011;489;47.806;12.858;2024-01-07T12:35:25;6.63;;;5.20;;
1000;SDS011;489;47.806;12.858;2024-01-07T12:37:27;6.33;;;5.30;;
1000;SDS011;489;47.806;12.858;2024-01-07T12:39:29;5.50;;;4.90;;
1000;SDS011;489;47.806;12.858;2024-01-07T12:41:31;5.73;;;5.13;;